sensor_id;sensor_type;location;lat;lon;timestamp;P1;durP1;ratioP1;P2;durP2;ratioP2
7607;SDS011;3845;48.120;11.534;2023-02-28T00:02:24;4.47;;;3.33;;
7607;SDS011;3845;48.120;11.534;2023-02-28T00:04:49;4.63;;;3.60;;
7607;SDS011;3845;48.120;11.534;2023-02-28T00:07:18;4.73;;;3.40;;
7607;SDS011;3845;48.120;11.534;2023-02-28T00:09:43;6.40;;;3.23;;
7607;SDS011;3845;48.120;11.534;2023-02-28T00:12:08;4.27;;;3.60;;
7607;SDS011;3845;48.120;11.534;2023-02-28T00:14:35;4.87;;;3.37;;
7607;SDS011;3845;48.120;11.534;2023-02-28T00:17:01;4.23;;;3.60;;
7607;SDS011;3845;48.120;11.534;2023-02-28T00:19:26;5.57;;;3.57;;
7607;SDS011;3845;48.120;11.534;2023-02-28T00:21:52;4.77;;;3.70;;
7607;SDS011;3845;48.120;11.534;2023-02-28T00:24:17;4.33;;;3.43;;
7607;SDS011;3845;48.120;11.534;2023-02-28T00:26:42;4.50;;;3.57;;
7607;SDS011;3845;48.120;11.534;2023-02-28T00:29:07;5.83;;;3.70;;
7607;SDS011;3845;48.120;11.534;2023-02-28T00:31:33;5.27;;;3.50;;
7607;SDS011;3845;48.120;11.534;2023-02-28T00:33:58;4.93;;;3.30;;
7607;SDS011;3845;48.120;11.534;2023-02-28T00:36:23;5.07;;;3.70;;
7607;SDS011;3845;48.120;11.534;2023-02-28T00:38:49;5.47;;;3.53;;
7607;SDS011;3845;48.120;11.534;2023-02-28T00:41:14;4.20;;;3.20;;
7607;SDS011;3845;48.120;11.534;2023-02-28T00:43:40;4.83;;;3.57;;
7607;SDS011;3845;48.120;11.534;2023-02-28T00:46:05;5.47;;;3.37;;
7607;SDS011;3845;48.120;11.534;2023-02-28T00:48:31;4.83;;;3.47;;
7607;SDS011;3845;48.120;11.534;2023-02-28T00:50:56;4.90;;;3.47;;
7607;SDS011;3845;48.120;11.534;2023-02-28T00:53:22;4.70;;;3.63;;
7607;SDS011;3845;48.120;11.534;2023-02-28T00:55:48;4.93;;;3.40;;
7607;SDS011;3845;48.120;11.534;2023-02-28T00:58:14;5.47;;;4.00;;
7607;SDS011;3845;48.120;11.534;2023-02-28T01:00:39;6.87;;;3.93;;
7607;SDS011;3845;48.120;11.534;2023-02-28T01:03:05;4.33;;;3.50;;
7607;SDS011;3845;48.120;11.534;2023-02-28T01:05:30;4.70;;;3.67;;
7607;SDS011;3845;48.120;11.534;2023-02-28T01:07:55;5.93;;;3.40;;
7607;SDS011;3845;48.120;11.534;2023-02-28T01:10:20;4.53;;;3.50;;
7607;SDS011;3845;48.120;11.534;2023-02-28T01:12:46;7.43;;;4.47;;
7607;SDS011;3845;48.120;11.534;2023-02-28T01:15:11;7.60;;;4.67;;
7607;SDS011;3845;48.120;11.534;2023-02-28T01:17:36;5.97;;;4.23;;
7607;SDS011;3845;48.120;11.534;2023-02-28T01:20:02;6.00;;;4.20;;
7607;SDS011;3845;48.120;11.534;2023-02-28T01:22:28;5.20;;;3.60;;
7607;SDS011;3845;48.120;11.534;2023-02-28T01:24:53;4.83;;;3.60;;
7607;SDS011;3845;48.120;11.534;2023-02-28T01:27:19;4.13;;;3.70;;
7607;SDS011;3845;48.120;11.534;2023-02-28T01:29:44;4.57;;;3.67;;
7607;SDS011;3845;48.120;11.534;2023-02-28T01:32:10;5.00;;;3.80;;
7607;SDS011;3845;48.120;11.534;2023-02-28T01:34:35;4.43;;;3.20;;
7607;SDS011;3845;48.120;11.534;2023-02-28T01:37:00;7.40;;;3.80;;
7607;SDS011;3845;48.120;11.534;2023-02-28T01:39:26;5.43;;;3.63;;
7607;SDS011;3845;48.120;11.534;2023-02-28T01:41:51;4.27;;;3.30;;
7607;SDS011;3845;48.120;11.534;2023-02-28T01:47:19;5.73;;;3.63;;
7607;SDS011;3845;48.120;11.534;2023-02-28T01:49:45;4.83;;;3.47;;
7607;SDS011;3845;48.120;11.534;2023-02-28T01:52:10;3.67;;;3.33;;
7607;SDS011;3845;48.120;11.534;2023-02-28T01:54:39;4.27;;;3.17;;
7607;SDS011;3845;48.120;11.534;2023-02-28T01:57:07;5.33;;;3.90;;
7607;SDS011;3845;48.120;11.534;2023-02-28T01:59:36;4.80;;;3.90;;
7607;SDS011;3845;48.120;11.534;2023-02-28T02:02:05;4.90;;;3.60;;
7607;SDS011;3845;48.120;11.534;2023-02-28T02:04:32;4.87;;;3.90;;
7607;SDS011;3845;48.120;11.534;2023-02-28T02:07:04;6.07;;;4.07;;
7607;SDS011;3845;48.120;11.534;2023-02-28T02:09:29;5.00;;;3.80;;
7607;SDS011;3845;48.120;11.534;2023-02-28T02:11:55;6.77;;;4.03;;
7607;SDS011;3845;48.120;11.534;2023-02-28T02:17:29;5.33;;;3.90;;
7607;SDS011;3845;48.120;11.534;2023-02-28T02:20:09;5.07;;;3.87;;
7607;SDS011;3845;48.120;11.534;2023-02-28T02:22:56;5.00;;;3.60;;
7607;SDS011;3845;48.120;11.534;2023-02-28T02:25:32;4.50;;;3.67;;
7607;SDS011;3845;48.120;11.534;2023-02-28T02:36:38;5.67;;;4.10;;
7607;SDS011;3845;48.120;11.534;2023-02-28T02:39:16;5.97;;;4.37;;
7607;SDS011;3845;48.120;11.534;2023-02-28T02:41:47;5.17;;;4.03;;
7607;SDS011;3845;48.120;11.534;2023-02-28T02:44:30;5.00;;;3.90;;
7607;SDS011;3845;48.120;11.534;2023-02-28T02:47:09;5.13;;;4.10;;
7607;SDS011;3845;48.120;11.534;2023-02-28T02:49:38;6.60;;;4.23;;
7607;SDS011;3845;48.120;11.534;2023-02-28T02:52:06;5.93;;;4.00;;
7607;SDS011;3845;48.120;11.534;2023-02-28T02:54:34;4.70;;;3.90;;
7607;SDS011;3845;48.120;11.534;2023-02-28T02:57:02;5.87;;;4.30;;
7607;SDS011;3845;48.120;11.534;2023-02-28T02:59:30;4.87;;;3.87;;
7607;SDS011;3845;48.120;11.534;2023-02-28T03:01:57;4.97;;;3.87;;
7607;SDS011;3845;48.120;11.534;2023-02-28T03:04:26;5.80;;;4.40;;
7607;SDS011;3845;48.120;11.534;2023-02-28T03:06:53;5.23;;;4.20;;
7607;SDS011;3845;48.120;11.534;2023-02-28T03:09:19;6.33;;;4.17;;
7607;SDS011;3845;48.120;11.534;2023-02-28T03:11:45;5.43;;;4.10;;
7607;SDS011;3845;48.120;11.534;2023-02-28T03:19:47;5.27;;;4.23;;
7607;SDS011;3845;48.120;11.534;2023-02-28T03:23:03;5.33;;;4.03;;
7607;SDS011;3845;48.120;11.534;2023-02-28T03:25:15;6.37;;;4.43;;
7607;SDS011;3845;48.120;11.534;2023-02-28T03:30:22;7.03;;;4.60;;
7607;SDS011;3845;48.120;11.534;2023-02-28T03:32:56;5.53;;;4.50;;
7607;SDS011;3845;48.120;11.534;2023-02-28T03:35:48;5.63;;;4.47;;
7607;SDS011;3845;48.120;11.534;2023-02-28T03:38:29;6.83;;;4.67;;
7607;SDS011;3845;48.120;11.534;2023-02-28T03:41:13;6.13;;;4.97;;
7607;SDS011;3845;48.120;11.534;2023-02-28T03:43:42;5.77;;;4.30;;
7607;SDS011;3845;48.120;11.534;2023-02-28T03:46:10;7.67;;;4.80;;
7607;SDS011;3845;48.120;11.534;2023-02-28T03:48:45;6.70;;;4.90;;
7607;SDS011;3845;48.120;11.534;2023-02-28T03:51:17;8.83;;;5.00;;
7607;SDS011;3845;48.120;11.534;2023-02-28T03:53:45;6.40;;;4.87;;
7607;SDS011;3845;48.120;11.534;2023-02-28T03:56:20;5.90;;;4.80;;
7607;SDS011;3845;48.120;11.534;2023-02-28T04:01:15;7.60;;;5.20;;
7607;SDS011;3845;48.120;11.534;2023-02-28T04:03:44;7.63;;;5.67;;
7607;SDS011;3845;48.120;11.534;2023-02-28T04:06:13;7.13;;;5.67;;
7607;SDS011;3845;48.120;11.534;2023-02-28T04:08:40;8.73;;;6.03;;
7607;SDS011;3845;48.120;11.534;2023-02-28T04:11:08;8.10;;;5.67;;
7607;SDS011;3845;48.120;11.534;2023-02-28T04:13:41;8.07;;;5.63;;
7607;SDS011;3845;48.120;11.534;2023-02-28T04:16:06;6.97;;;5.67;;
7607;SDS011;3845;48.120;11.534;2023-02-28T04:18:37;8.20;;;6.00;;
7607;SDS011;3845;48.120;11.534;2023-02-28T04:21:05;8.07;;;5.93;;
7607;SDS011;3845;48.120;11.534;2023-02-28T04:23:31;8.67;;;5.90;;
7607;SDS011;3845;48.120;11.534;2023-02-28T04:25:57;7.93;;;6.03;;
7607;SDS011;3845;48.120;11.534;2023-02-28T04:28:22;7.97;;;6.13;;
7607;SDS011;3845;48.120;11.534;2023-02-28T04:30:53;7.90;;;6.07;;
7607;SDS011;3845;48.120;11.534;2023-02-28T04:33:19;9.33;;;6.47;;
7607;SDS011;3845;48.120;11.534;2023-02-28T04:35:44;8.83;;;6.47;;
7607;SDS011;3845;48.120;11.534;2023-02-28T04:38:10;8.40;;;6.40;;
7607;SDS011;3845;48.120;11.534;2023-02-28T04:40:35;8.77;;;6.10;;
7607;SDS011;3845;48.120;11.534;2023-02-28T04:43:00;9.63;;;6.67;;
7607;SDS011;3845;48.120;11.534;2023-02-28T04:45:25;9.13;;;5.97;;
7607;SDS011;3845;48.120;11.534;2023-02-28T04:47:51;8.60;;;6.33;;
7607;SDS011;3845;48.120;11.534;2023-02-28T04:50:16;8.60;;;6.40;;
7607;SDS011;3845;48.120;11.534;2023-02-28T04:52:41;8.03;;;6.40;;
7607;SDS011;3845;48.120;11.534;2023-02-28T04:55:07;11.00;;;7.57;;
7607;SDS011;3845;48.120;11.534;2023-02-28T04:57:32;9.97;;;7.30;;
7607;SDS011;3845;48.120;11.534;2023-02-28T04:59:58;9.90;;;7.23;;
7607;SDS011;3845;48.120;11.534;2023-02-28T05:02:23;8.73;;;7.07;;
7607;SDS011;3845;48.120;11.534;2023-02-28T05:04:48;11.30;;;8.17;;
7607;SDS011;3845;48.120;11.534;2023-02-28T05:07:13;11.67;;;7.90;;
7607;SDS011;3845;48.120;11.534;2023-02-28T05:09:39;11.13;;;7.93;;
7607;SDS011;3845;48.120;11.534;2023-02-28T05:12:04;9.43;;;7.50;;
7607;SDS011;3845;48.120;11.534;2023-02-28T05:14:29;11.43;;;8.13;;
7607;SDS011;3845;48.120;11.534;2023-02-28T05:16:55;9.93;;;7.63;;
7607;SDS011;3845;48.120;11.534;2023-02-28T05:19:20;11.23;;;8.27;;
7607;SDS011;3845;48.120;11.534;2023-02-28T05:21:53;12.73;;;8.30;;
7607;SDS011;3845;48.120;11.534;2023-02-28T05:24:19;9.70;;;7.57;;
7607;SDS011;3845;48.120;11.534;2023-02-28T05:26:48;9.07;;;7.23;;
7607;SDS011;3845;48.120;11.534;2023-02-28T05:29:15;10.30;;;7.13;;
7607;SDS011;3845;48.120;11.534;2023-02-28T05:31:40;11.17;;;7.60;;
7607;SDS011;3845;48.120;11.534;2023-02-28T05:34:06;10.70;;;7.63;;
7607;SDS011;3845;48.120;11.534;2023-02-28T05:36:31;11.63;;;8.70;;
7607;SDS011;3845;48.120;11.534;2023-02-28T05:38:57;12.63;;;9.33;;
7607;SDS011;3845;48.120;11.534;2023-02-28T05:41:22;12.63;;;9.33;;
7607;SDS011;3845;48.120;11.534;2023-02-28T05:43:48;11.40;;;8.43;;
7607;SDS011;3845;48.120;11.534;2023-02-28T05:46:13;10.17;;;8.30;;
7607;SDS011;3845;48.120;11.534;2023-02-28T05:48:39;11.03;;;8.00;;
7607;SDS011;3845;48.120;11.534;2023-02-28T05:51:06;11.83;;;8.73;;
7607;SDS011;3845;48.120;11.534;2023-02-28T05:53:32;12.07;;;9.23;;
7607;SDS011;3845;48.120;11.534;2023-02-28T05:55:57;13.00;;;9.10;;
7607;SDS011;3845;48.120;11.534;2023-02-28T05:58:23;11.97;;;9.10;;
7607;SDS011;3845;48.120;11.534;2023-02-28T06:00:50;14.10;;;9.37;;
7607;SDS011;3845;48.120;11.534;2023-02-28T06:03:15;13.53;;;10.57;;
7607;SDS011;3845;48.120;11.534;2023-02-28T06:05:41;14.07;;;10.23;;
7607;SDS011;3845;48.120;11.534;2023-02-28T06:08:06;14.60;;;11.07;;
7607;SDS011;3845;48.120;11.534;2023-02-28T06:10:32;15.80;;;10.67;;
7607;SDS011;3845;48.120;11.534;2023-02-28T06:13:02;14.47;;;10.47;;
7607;SDS011;3845;48.120;11.534;2023-02-28T06:15:28;13.20;;;10.17;;
7607;SDS011;3845;48.120;11.534;2023-02-28T06:17:54;18.50;;;11.03;;
7607;SDS011;3845;48.120;11.534;2023-02-28T06:20:21;16.37;;;10.90;;
7607;SDS011;3845;48.120;11.534;2023-02-28T06:22:47;15.93;;;11.37;;
7607;SDS011;3845;48.120;11.534;2023-02-28T06:25:12;14.20;;;10.53;;
7607;SDS011;3845;48.120;11.534;2023-02-28T06:27:38;16.03;;;11.30;;
7607;SDS011;3845;48.120;11.534;2023-02-28T06:30:03;15.83;;;10.80;;
7607;SDS011;3845;48.120;11.534;2023-02-28T06:32:29;14.73;;;11.03;;
7607;SDS011;3845;48.120;11.534;2023-02-28T06:34:55;18.33;;;12.13;;
7607;SDS011;3845;48.120;11.534;2023-02-28T06:37:22;15.40;;;11.53;;
7607;SDS011;3845;48.120;11.534;2023-02-28T06:39:51;15.40;;;11.23;;
7607;SDS011;3845;48.120;11.534;2023-02-28T06:42:16;18.13;;;12.60;;
7607;SDS011;3845;48.120;11.534;2023-02-28T06:44:41;18.20;;;12.33;;
7607;SDS011;3845;48.120;11.534;2023-02-28T06:47:07;19.70;;;13.27;;
7607;SDS011;3845;48.120;11.534;2023-02-28T06:49:33;20.50;;;12.83;;
7607;SDS011;3845;48.120;11.534;2023-02-28T06:52:00;23.27;;;13.60;;
7607;SDS011;3845;48.120;11.534;2023-02-28T06:54:25;18.60;;;12.20;;
7607;SDS011;3845;48.120;11.534;2023-02-28T06:56:51;16.43;;;12.47;;
7607;SDS011;3845;48.120;11.534;2023-02-28T06:59:16;19.20;;;12.60;;
7607;SDS011;3845;48.120;11.534;2023-02-28T07:01:42;16.83;;;12.17;;
7607;SDS011;3845;48.120;11.534;2023-02-28T07:04:07;15.77;;;12.50;;
7607;SDS011;3845;48.120;11.534;2023-02-28T07:06:33;19.63;;;13.00;;
7607;SDS011;3845;48.120;11.534;2023-02-28T07:08:58;16.90;;;12.80;;
7607;SDS011;3845;48.120;11.534;2023-02-28T07:11:24;17.27;;;11.97;;
7607;SDS011;3845;48.120;11.534;2023-02-28T07:13:54;17.03;;;11.60;;
7607;SDS011;3845;48.120;11.534;2023-02-28T07:16:20;15.00;;;11.20;;
7607;SDS011;3845;48.120;11.534;2023-02-28T07:18:45;16.33;;;11.77;;
7607;SDS011;3845;48.120;11.534;2023-02-28T07:21:11;14.33;;;11.17;;
7607;SDS011;3845;48.120;11.534;2023-02-28T07:23:37;16.77;;;12.03;;
7607;SDS011;3845;48.120;11.534;2023-02-28T07:26:03;16.03;;;11.93;;
7607;SDS011;3845;48.120;11.534;2023-02-28T07:28:29;15.93;;;11.50;;
7607;SDS011;3845;48.120;11.534;2023-02-28T07:30:54;19.37;;;12.20;;
7607;SDS011;3845;48.120;11.534;2023-02-28T07:33:19;17.27;;;12.40;;
7607;SDS011;3845;48.120;11.534;2023-02-28T07:35:45;15.70;;;11.70;;
7607;SDS011;3845;48.120;11.534;2023-02-28T07:38:10;15.00;;;10.73;;
7607;SDS011;3845;48.120;11.534;2023-02-28T07:40:36;14.53;;;11.23;;
7607;SDS011;3845;48.120;11.534;2023-02-28T07:43:02;14.37;;;10.70;;
7607;SDS011;3845;48.120;11.534;2023-02-28T07:45:28;14.97;;;11.43;;
7607;SDS011;3845;48.120;11.534;2023-02-28T07:47:54;16.17;;;12.47;;
7607;SDS011;3845;48.120;11.534;2023-02-28T07:50:19;16.93;;;12.10;;
7607;SDS011;3845;48.120;11.534;2023-02-28T07:52:45;15.87;;;12.43;;
7607;SDS011;3845;48.120;11.534;2023-02-28T07:55:10;17.77;;;11.93;;
7607;SDS011;3845;48.120;11.534;2023-02-28T07:57:36;16.40;;;12.30;;
7607;SDS011;3845;48.120;11.534;2023-02-28T08:00:04;18.27;;;12.60;;
7607;SDS011;3845;48.120;11.534;2023-02-28T08:02:32;17.57;;;12.33;;
7607;SDS011;3845;48.120;11.534;2023-02-28T08:04:57;15.37;;;11.83;;
7607;SDS011;3845;48.120;11.534;2023-02-28T08:07:22;15.37;;;11.77;;
7607;SDS011;3845;48.120;11.534;2023-02-28T08:09:47;16.07;;;12.10;;
7607;SDS011;3845;48.120;11.534;2023-02-28T08:12:13;17.23;;;11.33;;
7607;SDS011;3845;48.120;11.534;2023-02-28T08:14:38;15.57;;;11.33;;
7607;SDS011;3845;48.120;11.534;2023-02-28T08:17:04;16.80;;;12.10;;
7607;SDS011;3845;48.120;11.534;2023-02-28T08:19:30;16.03;;;11.57;;
7607;SDS011;3845;48.120;11.534;2023-02-28T08:21:55;15.10;;;10.97;;
7607;SDS011;3845;48.120;11.534;2023-02-28T08:24:21;16.57;;;12.27;;
7607;SDS011;3845;48.120;11.534;2023-02-28T08:26:47;15.70;;;12.10;;
7607;SDS011;3845;48.120;11.534;2023-02-28T08:29:12;16.13;;;11.87;;
7607;SDS011;3845;48.120;11.534;2023-02-28T08:31:38;14.83;;;11.90;;
7607;SDS011;3845;48.120;11.534;2023-02-28T08:34:07;15.93;;;12.47;;
7607;SDS011;3845;48.120;11.534;2023-02-28T08:36:33;17.47;;;12.73;;
7607;SDS011;3845;48.120;11.534;2023-02-28T08:38:59;15.30;;;11.83;;
7607;SDS011;3845;48.120;11.534;2023-02-28T08:41:24;18.30;;;13.57;;
7607;SDS011;3845;48.120;11.534;2023-02-28T08:43:50;19.43;;;13.67;;
7607;SDS011;3845;48.120;11.534;2023-02-28T08:46:16;16.63;;;12.53;;
7607;SDS011;3845;48.120;11.534;2023-02-28T08:48:41;17.07;;;13.17;;
7607;SDS011;3845;48.120;11.534;2023-02-28T08:51:07;17.63;;;12.53;;
7607;SDS011;3845;48.120;11.534;2023-02-28T08:53:35;16.60;;;12.23;;
7607;SDS011;3845;48.120;11.534;2023-02-28T08:56:02;16.63;;;12.87;;
7607;SDS011;3845;48.120;11.534;2023-02-28T08:58:29;15.23;;;12.43;;
7607;SDS011;3845;48.120;11.534;2023-02-28T09:00:55;16.07;;;12.27;;
7607;SDS011;3845;48.120;11.534;2023-02-28T09:03:20;15.37;;;11.67;;
7607;SDS011;3845;48.120;11.534;2023-02-28T09:05:54;15.03;;;12.30;;
7607;SDS011;3845;48.120;11.534;2023-02-28T09:08:24;17.63;;;13.80;;
7607;SDS011;3845;48.120;11.534;2023-02-28T09:10:50;16.77;;;13.10;;
7607;SDS011;3845;48.120;11.534;2023-02-28T09:13:15;18.23;;;13.77;;
7607;SDS011;3845;48.120;11.534;2023-02-28T09:15:41;15.60;;;11.60;;
7607;SDS011;3845;48.120;11.534;2023-02-28T09:18:06;15.70;;;12.90;;
7607;SDS011;3845;48.120;11.534;2023-02-28T09:20:31;14.73;;;11.53;;
7607;SDS011;3845;48.120;11.534;2023-02-28T09:22:57;17.07;;;12.73;;
7607;SDS011;3845;48.120;11.534;2023-02-28T09:25:22;15.57;;;12.33;;
7607;SDS011;3845;48.120;11.534;2023-02-28T09:27:47;15.47;;;12.10;;
7607;SDS011;3845;48.120;11.534;2023-02-28T09:30:13;16.53;;;11.10;;
7607;SDS011;3845;48.120;11.534;2023-02-28T09:32:38;12.83;;;10.60;;
7607;SDS011;3845;48.120;11.534;2023-02-28T09:35:04;17.70;;;10.67;;
7607;SDS011;3845;48.120;11.534;2023-02-28T09:37:30;13.43;;;10.57;;
7607;SDS011;3845;48.120;11.534;2023-02-28T09:39:56;17.40;;;13.17;;
7607;SDS011;3845;48.120;11.534;2023-02-28T09:42:23;17.93;;;12.90;;
7607;SDS011;3845;48.120;11.534;2023-02-28T09:44:53;16.40;;;12.60;;
7607;SDS011;3845;48.120;11.534;2023-02-28T09:47:24;17.67;;;13.90;;
7607;SDS011;3845;48.120;11.534;2023-02-28T09:49:52;20.90;;;13.33;;
7607;SDS011;3845;48.120;11.534;2023-02-28T09:52:20;18.47;;;13.03;;
7607;SDS011;3845;48.120;11.534;2023-02-28T09:54:47;17.67;;;12.33;;
7607;SDS011;3845;48.120;11.534;2023-02-28T10:05:24;16.97;;;12.80;;
7607;SDS011;3845;48.120;11.534;2023-02-28T10:10:35;15.37;;;12.20;;
7607;SDS011;3845;48.120;11.534;2023-02-28T10:13:04;15.50;;;11.80;;
7607;SDS011;3845;48.120;11.534;2023-02-28T10:15:32;14.37;;;10.93;;
7607;SDS011;3845;48.120;11.534;2023-02-28T10:18:06;17.63;;;12.67;;
7607;SDS011;3845;48.120;11.534;2023-02-28T10:20:39;15.13;;;11.63;;
7607;SDS011;3845;48.120;11.534;2023-02-28T10:25:40;14.40;;;11.50;;
7607;SDS011;3845;48.120;11.534;2023-02-28T10:28:13;13.40;;;10.90;;
7607;SDS011;3845;48.120;11.534;2023-02-28T10:30:45;15.97;;;11.73;;
7607;SDS011;3845;48.120;11.534;2023-02-28T10:33:17;17.10;;;12.80;;
7607;SDS011;3845;48.120;11.534;2023-02-28T10:35:44;15.43;;;12.23;;
7607;SDS011;3845;48.120;11.534;2023-02-28T10:38:12;15.37;;;11.50;;
7607;SDS011;3845;48.120;11.534;2023-02-28T10:40:40;14.00;;;10.80;;
7607;SDS011;3845;48.120;11.534;2023-02-28T10:45:37;13.17;;;11.17;;
7607;SDS011;3845;48.120;11.534;2023-02-28T10:48:23;16.60;;;11.97;;
7607;SDS011;3845;48.120;11.534;2023-02-28T10:50:52;14.43;;;10.43;;
7607;SDS011;3845;48.120;11.534;2023-02-28T10:58:46;14.77;;;12.07;;
7607;SDS011;3845;48.120;11.534;2023-02-28T11:03:56;15.93;;;13.27;;
7607;SDS011;3845;48.120;11.534;2023-02-28T11:06:31;14.10;;;11.90;;
7607;SDS011;3845;48.120;11.534;2023-02-28T11:08:59;18.50;;;13.03;;
7607;SDS011;3845;48.120;11.534;2023-02-28T11:11:26;20.53;;;14.10;;
7607;SDS011;3845;48.120;11.534;2023-02-28T11:13:54;17.53;;;13.37;;
7607;SDS011;3845;48.120;11.534;2023-02-28T11:16:21;16.37;;;12.43;;
7607;SDS011;3845;48.120;11.534;2023-02-28T11:18:51;13.47;;;11.20;;
7607;SDS011;3845;48.120;11.534;2023-02-28T11:23:49;16.90;;;12.43;;
7607;SDS011;3845;48.120;11.534;2023-02-28T11:26:17;17.10;;;12.67;;
7607;SDS011;3845;48.120;11.534;2023-02-28T11:29:03;17.13;;;13.07;;
7607;SDS011;3845;48.120;11.534;2023-02-28T11:31:34;16.97;;;13.13;;
7607;SDS011;3845;48.120;11.534;2023-02-28T11:33:59;15.93;;;12.23;;
7607;SDS011;3845;48.120;11.534;2023-02-28T11:36:29;16.90;;;12.63;;
7607;SDS011;3845;48.120;11.534;2023-02-28T11:38:56;16.20;;;12.27;;
7607;SDS011;3845;48.120;11.534;2023-02-28T11:46:45;18.53;;;12.67;;
7607;SDS011;3845;48.120;11.534;2023-02-28T11:49:17;14.17;;;11.67;;
7607;SDS011;3845;48.120;11.534;2023-02-28T11:52:10;16.87;;;12.60;;
7607;SDS011;3845;48.120;11.534;2023-02-28T11:57:36;16.43;;;12.40;;
7607;SDS011;3845;48.120;11.534;2023-02-28T12:08:19;14.23;;;11.00;;
7607;SDS011;3845;48.120;11.534;2023-02-28T12:21:48;16.30;;;12.17;;
7607;SDS011;3845;48.120;11.534;2023-02-28T12:24:28;18.43;;;12.60;;
7607;SDS011;3845;48.120;11.534;2023-02-28T12:27:00;19.07;;;12.40;;
7607;SDS011;3845;48.120;11.534;2023-02-28T12:29:29;16.27;;;12.57;;
7607;SDS011;3845;48.120;11.534;2023-02-28T12:31:59;14.83;;;12.40;;
7607;SDS011;3845;48.120;11.534;2023-02-28T12:34:35;14.97;;;12.70;;
7607;SDS011;3845;48.120;11.534;2023-02-28T12:37:07;14.00;;;11.10;;
7607;SDS011;3845;48.120;11.534;2023-02-28T12:39:36;16.97;;;12.23;;
7607;SDS011;3845;48.120;11.534;2023-02-28T12:42:05;18.47;;;12.83;;
7607;SDS011;3845;48.120;11.534;2023-02-28T12:44:37;16.27;;;11.73;;
7607;SDS011;3845;48.120;11.534;2023-02-28T12:47:13;15.47;;;12.47;;
7607;SDS011;3845;48.120;11.534;2023-02-28T12:52:08;17.00;;;12.47;;
7607;SDS011;3845;48.120;11.534;2023-02-28T12:57:15;15.53;;;12.43;;
7607;SDS011;3845;48.120;11.534;2023-02-28T13:00:00;15.43;;;12.63;;
7607;SDS011;3845;48.120;11.534;2023-02-28T13:11:06;16.23;;;12.60;;
7607;SDS011;3845;48.120;11.534;2023-02-28T13:13:31;14.13;;;11.30;;
7607;SDS011;3845;48.120;11.534;2023-02-28T13:18:29;12.80;;;11.00;;
7607;SDS011;3845;48.120;11.534;2023-02-28T13:20:56;13.90;;;10.77;;
7607;SDS011;3845;48.120;11.534;2023-02-28T13:23:56;12.80;;;10.50;;
7607;SDS011;3845;48.120;11.534;2023-02-28T13:26:20;13.20;;;10.63;;
7607;SDS011;3845;48.120;11.534;2023-02-28T13:28:56;13.90;;;10.83;;
7607;SDS011;3845;48.120;11.534;2023-02-28T13:31:23;16.80;;;11.17;;
7607;SDS011;3845;48.120;11.534;2023-02-28T13:38:45;16.30;;;11.90;;
7607;SDS011;3845;48.120;11.534;2023-02-28T13:42:13;14.37;;;11.67;;
7607;SDS011;3845;48.120;11.534;2023-02-28T13:44:18;15.70;;;11.50;;
7607;SDS011;3845;48.120;11.534;2023-02-28T13:51:47;13.53;;;10.80;;
7607;SDS011;3845;48.120;11.534;2023-02-28T13:54:24;14.60;;;11.60;;
7607;SDS011;3845;48.120;11.534;2023-02-28T14:05:01;14.30;;;10.93;;
7607;SDS011;3845;48.120;11.534;2023-02-28T14:07:32;11.77;;;9.63;;
7607;SDS011;3845;48.120;11.534;2023-02-28T14:10:04;13.07;;;10.03;;
7607;SDS011;3845;48.120;11.534;2023-02-28T14:17:51;12.70;;;10.07;;
7607;SDS011;3845;48.120;11.534;2023-02-28T14:20:17;16.77;;;11.10;;
7607;SDS011;3845;48.120;11.534;2023-02-28T14:28:11;12.73;;;10.40;;
7607;SDS011;3845;48.120;11.534;2023-02-28T14:36:21;15.53;;;11.43;;
7607;SDS011;3845;48.120;11.534;2023-02-28T14:38:56;15.17;;;11.37;;
7607;SDS011;3845;48.120;11.534;2023-02-28T14:41:24;12.63;;;10.50;;
7607;SDS011;3845;48.120;11.534;2023-02-28T14:43:56;11.73;;;10.37;;
7607;SDS011;3845;48.120;11.534;2023-02-28T14:46:23;15.37;;;10.90;;
7607;SDS011;3845;48.120;11.534;2023-02-28T14:48:53;16.80;;;11.67;;
7607;SDS011;3845;48.120;11.534;2023-02-28T14:51:20;11.57;;;10.00;;
7607;SDS011;3845;48.120;11.534;2023-02-28T14:53:48;14.57;;;10.83;;
7607;SDS011;3845;48.120;11.534;2023-02-28T14:56:49;11.07;;;8.80;;
7607;SDS011;3845;48.120;11.534;2023-02-28T14:59:29;12.27;;;10.20;;
7607;SDS011;3845;48.120;11.534;2023-02-28T15:02:15;14.00;;;10.57;;
7607;SDS011;3845;48.120;11.534;2023-02-28T15:04:43;13.60;;;10.33;;
7607;SDS011;3845;48.120;11.534;2023-02-28T15:07:17;12.30;;;10.13;;
7607;SDS011;3845;48.120;11.534;2023-02-28T15:09:43;13.37;;;10.57;;
7607;SDS011;3845;48.120;11.534;2023-02-28T15:12:09;13.77;;;10.23;;
7607;SDS011;3845;48.120;11.534;2023-02-28T15:14:38;13.40;;;10.40;;
7607;SDS011;3845;48.120;11.534;2023-02-28T15:17:08;13.13;;;9.97;;
7607;SDS011;3845;48.120;11.534;2023-02-28T15:19:40;13.67;;;10.73;;
7607;SDS011;3845;48.120;11.534;2023-02-28T15:22:14;14.63;;;10.77;;
7607;SDS011;3845;48.120;11.534;2023-02-28T15:24:51;13.90;;;11.00;;
7607;SDS011;3845;48.120;11.534;2023-02-28T15:27:25;12.90;;;9.70;;
7607;SDS011;3845;48.120;11.534;2023-02-28T15:29:57;13.23;;;10.43;;
7607;SDS011;3845;48.120;11.534;2023-02-28T15:34:51;15.17;;;10.47;;
7607;SDS011;3845;48.120;11.534;2023-02-28T15:39:58;14.73;;;10.10;;
7607;SDS011;3845;48.120;11.534;2023-02-28T15:42:30;16.00;;;11.00;;
7607;SDS011;3845;48.120;11.534;2023-02-28T15:44:56;16.03;;;10.70;;
7607;SDS011;3845;48.120;11.534;2023-02-28T15:47:27;16.43;;;11.33;;
7607;SDS011;3845;48.120;11.534;2023-02-28T15:50:00;14.37;;;11.20;;
7607;SDS011;3845;48.120;11.534;2023-02-28T15:52:34;16.87;;;12.07;;
7607;SDS011;3845;48.120;11.534;2023-02-28T15:57:53;14.23;;;10.63;;
7607;SDS011;3845;48.120;11.534;2023-02-28T16:00:22;16.73;;;12.00;;
7607;SDS011;3845;48.120;11.534;2023-02-28T16:02:49;13.00;;;10.30;;
7607;SDS011;3845;48.120;11.534;2023-02-28T16:05:28;15.30;;;10.13;;
7607;SDS011;3845;48.120;11.534;2023-02-28T16:07:58;12.93;;;9.00;;
7607;SDS011;3845;48.120;11.534;2023-02-28T16:10:25;13.43;;;10.00;;
7607;SDS011;3845;48.120;11.534;2023-02-28T16:12:53;12.83;;;9.83;;
7607;SDS011;3845;48.120;11.534;2023-02-28T16:15:21;12.37;;;9.53;;
7607;SDS011;3845;48.120;11.534;2023-02-28T16:17:51;11.63;;;8.83;;
7607;SDS011;3845;48.120;11.534;2023-02-28T16:20:18;12.40;;;9.23;;
7607;SDS011;3845;48.120;11.534;2023-02-28T16:22:45;12.10;;;10.10;;
7607;SDS011;3845;48.120;11.534;2023-02-28T16:25:11;12.03;;;10.00;;
7607;SDS011;3845;48.120;11.534;2023-02-28T16:27:40;12.67;;;9.90;;
7607;SDS011;3845;48.120;11.534;2023-02-28T16:30:07;10.77;;;9.20;;
7607;SDS011;3845;48.120;11.534;2023-02-28T16:32:42;12.93;;;10.17;;
7607;SDS011;3845;48.120;11.534;2023-02-28T16:35:09;14.37;;;10.63;;
7607;SDS011;3845;48.120;11.534;2023-02-28T16:37:35;13.97;;;10.87;;
7607;SDS011;3845;48.120;11.534;2023-02-28T16:40:00;13.13;;;10.40;;
7607;SDS011;3845;48.120;11.534;2023-02-28T16:42:26;13.13;;;10.37;;
7607;SDS011;3845;48.120;11.534;2023-02-28T16:44:53;14.67;;;11.00;;
7607;SDS011;3845;48.120;11.534;2023-02-28T16:47:19;15.47;;;11.43;;
7607;SDS011;3845;48.120;11.534;2023-02-28T16:49:45;13.60;;;11.10;;
7607;SDS011;3845;48.120;11.534;2023-02-28T16:52:12;12.73;;;10.50;;
7607;SDS011;3845;48.120;11.534;2023-02-28T16:54:38;14.03;;;11.20;;
7607;SDS011;3845;48.120;11.534;2023-02-28T16:57:04;13.53;;;9.87;;
7607;SDS011;3845;48.120;11.534;2023-02-28T16:59:30;12.67;;;10.20;;
7607;SDS011;3845;48.120;11.534;2023-02-28T17:01:56;12.90;;;9.80;;
7607;SDS011;3845;48.120;11.534;2023-02-28T17:04:25;13.83;;;10.93;;
7607;SDS011;3845;48.120;11.534;2023-02-28T17:06:51;11.67;;;10.03;;
7607;SDS011;3845;48.120;11.534;2023-02-28T17:09:17;13.57;;;9.80;;